sensor_id;sensor_type;location;lat;lon;timestamp;P1;durP1;ratioP1;P2;durP2;ratioP2
15573;SDS011;7888;46.748;8.102;2023-02-24T00:01:25;4.67;;;2.93;;
15573;SDS011;7888;46.748;8.102;2023-02-24T00:03:56;4.47;;;2.50;;
15573;SDS011;7888;46.748;8.102;2023-02-24T00:06:27;4.23;;;2.27;;
15573;SDS011;7888;46.748;8.102;2023-02-24T00:09:08;4.80;;;2.13;;
15573;SDS011;7888;46.748;8.102;2023-02-24T00:11:39;5.37;;;2.47;;
15573;SDS011;7888;46.748;8.102;2023-02-24T00:14:09;5.17;;;2.70;;
15573;SDS011;7888;46.748;8.102;2023-02-24T00:16:44;6.07;;;2.50;;
15573;SDS011;7888;46.748;8.102;2023-02-24T00:19:12;3.00;;;2.20;;
15573;SDS011;7888;46.748;8.102;2023-02-24T00:21:42;3.40;;;2.27;;
15573;SDS011;7888;46.748;8.102;2023-02-24T00:24:09;4.23;;;2.37;;
15573;SDS011;7888;46.748;8.102;2023-02-24T00:26:35;4.90;;;2.33;;
15573;SDS011;7888;46.748;8.102;2023-02-24T00:29:06;6.43;;;2.50;;
15573;SDS011;7888;46.748;8.102;2023-02-24T00:31:36;5.03;;;2.80;;
15573;SDS011;7888;46.748;8.102;2023-02-24T00:34:07;5.07;;;2.40;;
15573;SDS011;7888;46.748;8.102;2023-02-24T00:36:36;3.57;;;2.23;;
15573;SDS011;7888;46.748;8.102;2023-02-24T00:39:04;4.93;;;1.93;;
15573;SDS011;7888;46.748;8.102;2023-02-24T00:41:36;2.70;;;1.80;;
15573;SDS011;7888;46.748;8.102;2023-02-24T00:44:06;2.87;;;1.80;;
15573;SDS011;7888;46.748;8.102;2023-02-24T00:46:36;3.20;;;1.97;;
15573;SDS011;7888;46.748;8.102;2023-02-24T00:49:12;5.03;;;1.90;;
15573;SDS011;7888;46.748;8.102;2023-02-24T00:51:42;3.90;;;1.70;;
15573;SDS011;7888;46.748;8.102;2023-02-24T00:54:12;6.87;;;2.07;;
15573;SDS011;7888;46.748;8.102;2023-02-24T00:56:44;5.00;;;1.90;;
15573;SDS011;7888;46.748;8.102;2023-02-24T00:59:13;3.80;;;2.00;;
15573;SDS011;7888;46.748;8.102;2023-02-24T01:01:47;4.73;;;1.73;;
15573;SDS011;7888;46.748;8.102;2023-02-24T01:04:15;5.10;;;1.83;;
15573;SDS011;7888;46.748;8.102;2023-02-24T01:06:52;3.03;;;1.90;;
15573;SDS011;7888;46.748;8.102;2023-02-24T01:09:24;5.17;;;1.80;;
15573;SDS011;7888;46.748;8.102;2023-02-24T01:11:53;3.87;;;2.00;;
15573;SDS011;7888;46.748;8.102;2023-02-24T01:14:37;3.40;;;1.63;;
15573;SDS011;7888;46.748;8.102;2023-02-24T01:17:04;4.40;;;1.97;;
15573;SDS011;7888;46.748;8.102;2023-02-24T01:19:31;4.17;;;2.30;;
15573;SDS011;7888;46.748;8.102;2023-02-24T01:21:59;3.30;;;1.67;;
15573;SDS011;7888;46.748;8.102;2023-02-24T01:24:32;4.30;;;1.90;;
15573;SDS011;7888;46.748;8.102;2023-02-24T01:27:05;3.23;;;2.03;;
15573;SDS011;7888;46.748;8.102;2023-02-24T01:29:33;3.40;;;2.10;;
15573;SDS011;7888;46.748;8.102;2023-02-24T01:32:06;3.10;;;1.70;;
15573;SDS011;7888;46.748;8.102;2023-02-24T01:34:44;3.73;;;1.63;;
15573;SDS011;7888;46.748;8.102;2023-02-24T01:37:10;4.20;;;1.77;;
15573;SDS011;7888;46.748;8.102;2023-02-24T01:39:40;3.60;;;1.73;;
15573;SDS011;7888;46.748;8.102;2023-02-24T01:42:09;3.80;;;1.73;;
15573;SDS011;7888;46.748;8.102;2023-02-24T01:47:09;3.90;;;1.63;;
15573;SDS011;7888;46.748;8.102;2023-02-24T01:49:39;3.93;;;2.00;;
15573;SDS011;7888;46.748;8.102;2023-02-24T01:58:02;3.87;;;1.90;;
15573;SDS011;7888;46.748;8.102;2023-02-24T02:00:35;2.87;;;2.03;;
15573;SDS011;7888;46.748;8.102;2023-02-24T02:05:48;3.70;;;1.87;;
15573;SDS011;7888;46.748;8.102;2023-02-24T02:08:16;4.63;;;1.70;;
15573;SDS011;7888;46.748;8.102;2023-02-24T02:10:45;2.50;;;1.50;;
15573;SDS011;7888;46.748;8.102;2023-02-24T02:13:12;4.40;;;1.60;;
15573;SDS011;7888;46.748;8.102;2023-02-24T02:15:51;2.97;;;1.63;;
15573;SDS011;7888;46.748;8.102;2023-02-24T02:24:26;3.80;;;1.80;;
15573;SDS011;7888;46.748;8.102;2023-02-24T02:27:40;4.87;;;1.80;;
15573;SDS011;7888;46.748;8.102;2023-02-24T02:30:26;4.10;;;1.60;;
15573;SDS011;7888;46.748;8.102;2023-02-24T02:35:42;1.90;;;1.57;;
15573;SDS011;7888;46.748;8.102;2023-02-24T02:44:37;4.43;;;1.60;;
15573;SDS011;7888;46.748;8.102;2023-02-24T02:53:18;3.03;;;1.70;;
15573;SDS011;7888;46.748;8.102;2023-02-24T02:56:22;6.13;;;1.90;;
15573;SDS011;7888;46.748;8.102;2023-02-24T02:58:57;3.13;;;1.40;;
15573;SDS011;7888;46.748;8.102;2023-02-24T03:01:28;4.83;;;2.23;;
15573;SDS011;7888;46.748;8.102;2023-02-24T03:04:05;2.77;;;1.73;;
15573;SDS011;7888;46.748;8.102;2023-02-24T03:06:36;5.37;;;2.00;;
15573;SDS011;7888;46.748;8.102;2023-02-24T03:09:13;4.40;;;1.70;;
15573;SDS011;7888;46.748;8.102;2023-02-24T03:12:01;3.00;;;1.97;;
15573;SDS011;7888;46.748;8.102;2023-02-24T03:14:36;4.00;;;2.30;;
15573;SDS011;7888;46.748;8.102;2023-02-24T03:17:11;3.60;;;1.60;;
15573;SDS011;7888;46.748;8.102;2023-02-24T03:19:46;2.73;;;1.50;;
15573;SDS011;7888;46.748;8.102;2023-02-24T03:22:26;3.00;;;1.77;;
15573;SDS011;7888;46.748;8.102;2023-02-24T03:25:00;2.80;;;1.60;;
15573;SDS011;7888;46.748;8.102;2023-02-24T03:27:44;3.60;;;1.80;;
15573;SDS011;7888;46.748;8.102;2023-02-24T03:30:24;3.33;;;1.63;;
15573;SDS011;7888;46.748;8.102;2023-02-24T03:33:06;3.37;;;1.50;;
15573;SDS011;7888;46.748;8.102;2023-02-24T03:36:00;3.53;;;1.83;;
15573;SDS011;7888;46.748;8.102;2023-02-24T03:38:27;2.83;;;1.77;;
15573;SDS011;7888;46.748;8.102;2023-02-24T03:40:56;6.43;;;1.97;;
15573;SDS011;7888;46.748;8.102;2023-02-24T03:43:24;3.20;;;1.97;;
15573;SDS011;7888;46.748;8.102;2023-02-24T03:45:56;4.17;;;1.83;;
15573;SDS011;7888;46.748;8.102;2023-02-24T03:48:25;4.10;;;1.90;;
15573;SDS011;7888;46.748;8.102;2023-02-24T03:50:53;1.80;;;1.50;;
15573;SDS011;7888;46.748;8.102;2023-02-24T03:53:36;4.60;;;2.10;;
15573;SDS011;7888;46.748;8.102;2023-02-24T04:01:51;4.40;;;1.90;;
15573;SDS011;7888;46.748;8.102;2023-02-24T04:04:31;3.23;;;1.73;;
15573;SDS011;7888;46.748;8.102;2023-02-24T04:10:13;3.90;;;1.67;;
15573;SDS011;7888;46.748;8.102;2023-02-24T04:12:54;3.97;;;1.57;;
15573;SDS011;7888;46.748;8.102;2023-02-24T04:18:09;3.20;;;1.50;;
15573;SDS011;7888;46.748;8.102;2023-02-24T04:20:40;5.37;;;1.80;;
15573;SDS011;7888;46.748;8.102;2023-02-24T04:23:15;2.50;;;1.90;;
15573;SDS011;7888;46.748;8.102;2023-02-24T04:25:46;3.03;;;1.60;;
15573;SDS011;7888;46.748;8.102;2023-02-24T04:28:17;2.77;;;1.70;;
15573;SDS011;7888;46.748;8.102;2023-02-24T04:30:47;6.37;;;2.17;;
15573;SDS011;7888;46.748;8.102;2023-02-24T04:33:18;2.93;;;1.90;;
15573;SDS011;7888;46.748;8.102;2023-02-24T04:35:44;3.40;;;1.70;;
15573;SDS011;7888;46.748;8.102;2023-02-24T04:38:17;2.60;;;1.67;;
15573;SDS011;7888;46.748;8.102;2023-02-24T04:40:44;2.83;;;1.30;;
15573;SDS011;7888;46.748;8.102;2023-02-24T04:43:10;3.50;;;2.23;;
15573;SDS011;7888;46.748;8.102;2023-02-24T04:45:37;2.60;;;1.60;;
15573;SDS011;7888;46.748;8.102;2023-02-24T04:48:06;3.87;;;1.60;;
15573;SDS011;7888;46.748;8.102;2023-02-24T04:50:37;2.40;;;1.40;;
15573;SDS011;7888;46.748;8.102;2023-02-24T04:53:08;3.53;;;1.87;;
15573;SDS011;7888;46.748;8.102;2023-02-24T04:55:40;4.67;;;1.80;;
15573;SDS011;7888;46.748;8.102;2023-02-24T04:58:13;1.90;;;1.40;;
15573;SDS011;7888;46.748;8.102;2023-02-24T05:00:48;2.30;;;1.60;;
15573;SDS011;7888;46.748;8.102;2023-02-24T05:03:22;4.40;;;1.80;;
15573;SDS011;7888;46.748;8.102;2023-02-24T05:05:53;2.47;;;1.60;;
15573;SDS011;7888;46.748;8.102;2023-02-24T05:08:27;2.67;;;1.57;;
15573;SDS011;7888;46.748;8.102;2023-02-24T05:10:55;6.33;;;1.87;;
15573;SDS011;7888;46.748;8.102;2023-02-24T05:13:26;2.70;;;1.50;;
15573;SDS011;7888;46.748;8.102;2023-02-24T05:16:02;4.80;;;1.53;;
15573;SDS011;7888;46.748;8.102;2023-02-24T05:18:32;4.70;;;1.80;;
15573;SDS011;7888;46.748;8.102;2023-02-24T05:21:03;5.83;;;1.93;;
15573;SDS011;7888;46.748;8.102;2023-02-24T05:23:57;3.33;;;1.50;;
15573;SDS011;7888;46.748;8.102;2023-02-24T05:26:23;2.83;;;1.50;;
15573;SDS011;7888;46.748;8.102;2023-02-24T05:28:51;4.57;;;1.70;;
15573;SDS011;7888;46.748;8.102;2023-02-24T05:31:24;3.13;;;1.50;;
15573;SDS011;7888;46.748;8.102;2023-02-24T05:34:00;4.70;;;2.10;;
15573;SDS011;7888;46.748;8.102;2023-02-24T05:36:33;3.90;;;1.83;;
15573;SDS011;7888;46.748;8.102;2023-02-24T05:39:04;2.30;;;1.53;;
15573;SDS011;7888;46.748;8.102;2023-02-24T05:41:32;2.10;;;1.50;;
15573;SDS011;7888;46.748;8.102;2023-02-24T05:44:02;2.40;;;1.80;;
15573;SDS011;7888;46.748;8.102;2023-02-24T05:46:41;3.63;;;2.50;;
15573;SDS011;7888;46.748;8.102;2023-02-24T05:49:17;4.60;;;2.57;;
15573;SDS011;7888;46.748;8.102;2023-02-24T05:51:51;3.70;;;2.00;;
15573;SDS011;7888;46.748;8.102;2023-02-24T05:54:24;6.27;;;2.10;;
15573;SDS011;7888;46.748;8.102;2023-02-24T05:57:07;3.93;;;1.90;;
15573;SDS011;7888;46.748;8.102;2023-02-24T05:59:41;5.63;;;2.20;;
15573;SDS011;7888;46.748;8.102;2023-02-24T06:02:10;2.97;;;1.60;;
15573;SDS011;7888;46.748;8.102;2023-02-24T06:04:40;3.00;;;1.90;;
15573;SDS011;7888;46.748;8.102;2023-02-24T06:09:49;2.40;;;1.77;;
15573;SDS011;7888;46.748;8.102;2023-02-24T06:12:18;2.80;;;1.80;;
15573;SDS011;7888;46.748;8.102;2023-02-24T06:14:47;3.20;;;1.90;;
15573;SDS011;7888;46.748;8.102;2023-02-24T06:17:16;4.67;;;2.10;;
15573;SDS011;7888;46.748;8.102;2023-02-24T06:19:43;5.03;;;3.30;;
15573;SDS011;7888;46.748;8.102;2023-02-24T06:22:12;9.03;;;4.03;;
15573;SDS011;7888;46.748;8.102;2023-02-24T06:24:40;8.10;;;6.07;;
15573;SDS011;7888;46.748;8.102;2023-02-24T06:27:09;10.30;;;6.17;;
15573;SDS011;7888;46.748;8.102;2023-02-24T06:29:46;15.73;;;8.83;;
15573;SDS011;7888;46.748;8.102;2023-02-24T06:32:16;77.90;;;33.20;;
15573;SDS011;7888;46.748;8.102;2023-02-24T06:34:47;186.47;;;78.80;;
15573;SDS011;7888;46.748;8.102;2023-02-24T06:37:15;154.30;;;64.93;;
15573;SDS011;7888;46.748;8.102;2023-02-24T06:39:42;78.03;;;34.73;;
15573;SDS011;7888;46.748;8.102;2023-02-24T06:42:08;44.80;;;19.77;;
15573;SDS011;7888;46.748;8.102;2023-02-24T06:44:37;23.93;;;13.50;;
15573;SDS011;7888;46.748;8.102;2023-02-24T06:47:06;17.43;;;8.43;;
15573;SDS011;7888;46.748;8.102;2023-02-24T06:49:37;12.10;;;6.40;;
15573;SDS011;7888;46.748;8.102;2023-02-24T06:52:02;12.03;;;6.17;;
15573;SDS011;7888;46.748;8.102;2023-02-24T06:54:30;8.57;;;4.57;;
15573;SDS011;7888;46.748;8.102;2023-02-24T06:56:59;9.33;;;3.87;;
15573;SDS011;7888;46.748;8.102;2023-02-24T06:59:27;9.37;;;4.00;;
15573;SDS011;7888;46.748;8.102;2023-02-24T07:01:54;7.97;;;4.60;;
15573;SDS011;7888;46.748;8.102;2023-02-24T07:04:21;7.27;;;3.70;;
15573;SDS011;7888;46.748;8.102;2023-02-24T07:06:52;10.83;;;5.03;;
15573;SDS011;7888;46.748;8.102;2023-02-24T07:09:27;13.57;;;6.40;;
15573;SDS011;7888;46.748;8.102;2023-02-24T07:11:54;16.97;;;8.20;;
15573;SDS011;7888;46.748;8.102;2023-02-24T07:14:22;22.70;;;12.63;;
15573;SDS011;7888;46.748;8.102;2023-02-24T07:16:51;14.73;;;8.07;;
15573;SDS011;7888;46.748;8.102;2023-02-24T07:19:23;15.10;;;7.20;;
15573;SDS011;7888;46.748;8.102;2023-02-24T07:21:56;14.07;;;6.83;;
15573;SDS011;7888;46.748;8.102;2023-02-24T07:24:27;9.13;;;6.20;;
15573;SDS011;7888;46.748;8.102;2023-02-24T07:26:58;12.70;;;7.13;;
15573;SDS011;7888;46.748;8.102;2023-02-24T07:29:46;12.47;;;8.13;;
15573;SDS011;7888;46.748;8.102;2023-02-24T07:32:14;14.63;;;11.13;;
15573;SDS011;7888;46.748;8.102;2023-02-24T07:34:42;14.53;;;10.00;;
15573;SDS011;7888;46.748;8.102;2023-02-24T07:37:08;10.70;;;6.43;;
15573;SDS011;7888;46.748;8.102;2023-02-24T07:39:36;7.60;;;4.23;;
15573;SDS011;7888;46.748;8.102;2023-02-24T07:42:04;4.07;;;2.40;;
15573;SDS011;7888;46.748;8.102;2023-02-24T07:44:33;5.43;;;2.53;;
15573;SDS011;7888;46.748;8.102;2023-02-24T07:46:59;4.80;;;2.07;;
15573;SDS011;7888;46.748;8.102;2023-02-24T07:49:32;4.70;;;2.37;;
15573;SDS011;7888;46.748;8.102;2023-02-24T07:51:58;3.93;;;2.17;;
15573;SDS011;7888;46.748;8.102;2023-02-24T07:54:25;5.00;;;2.97;;
15573;SDS011;7888;46.748;8.102;2023-02-24T07:56:54;5.33;;;2.40;;
15573;SDS011;7888;46.748;8.102;2023-02-24T07:59:30;4.90;;;2.60;;
15573;SDS011;7888;46.748;8.102;2023-02-24T08:01:59;3.70;;;2.53;;
15573;SDS011;7888;46.748;8.102;2023-02-24T08:04:28;5.13;;;2.10;;
15573;SDS011;7888;46.748;8.102;2023-02-24T08:06:56;3.37;;;1.80;;
15573;SDS011;7888;46.748;8.102;2023-02-24T08:09:27;7.37;;;2.37;;
15573;SDS011;7888;46.748;8.102;2023-02-24T08:12:17;3.87;;;2.33;;
15573;SDS011;7888;46.748;8.102;2023-02-24T08:14:47;5.93;;;2.03;;
15573;SDS011;7888;46.748;8.102;2023-02-24T08:17:20;3.70;;;2.20;;
15573;SDS011;7888;46.748;8.102;2023-02-24T08:19:50;4.17;;;2.00;;
15573;SDS011;7888;46.748;8.102;2023-02-24T08:22:39;5.07;;;2.17;;
15573;SDS011;7888;46.748;8.102;2023-02-24T08:25:08;5.40;;;2.63;;
15573;SDS011;7888;46.748;8.102;2023-02-24T08:27:42;5.17;;;2.30;;
15573;SDS011;7888;46.748;8.102;2023-02-24T08:30:11;7.67;;;2.13;;
15573;SDS011;7888;46.748;8.102;2023-02-24T08:32:47;2.87;;;1.67;;
15573;SDS011;7888;46.748;8.102;2023-02-24T08:35:22;5.70;;;1.93;;
15573;SDS011;7888;46.748;8.102;2023-02-24T08:37:56;2.83;;;1.77;;
15573;SDS011;7888;46.748;8.102;2023-02-24T08:40:35;3.27;;;2.07;;
15573;SDS011;7888;46.748;8.102;2023-02-24T08:43:14;4.17;;;1.90;;
15573;SDS011;7888;46.748;8.102;2023-02-24T08:46:14;5.33;;;1.83;;
15573;SDS011;7888;46.748;8.102;2023-02-24T08:48:53;3.50;;;1.70;;
15573;SDS011;7888;46.748;8.102;2023-02-24T08:53:56;3.70;;;1.80;;
15573;SDS011;7888;46.748;8.102;2023-02-24T08:56:35;2.97;;;1.80;;
15573;SDS011;7888;46.748;8.102;2023-02-24T08:59:07;4.83;;;1.83;;
15573;SDS011;7888;46.748;8.102;2023-02-24T09:02:02;4.57;;;2.13;;
15573;SDS011;7888;46.748;8.102;2023-02-24T09:04:46;3.07;;;2.00;;
15573;SDS011;7888;46.748;8.102;2023-02-24T09:07:28;5.77;;;1.77;;
15573;SDS011;7888;46.748;8.102;2023-02-24T09:09:59;3.93;;;1.57;;
15573;SDS011;7888;46.748;8.102;2023-02-24T09:12:46;4.30;;;1.63;;
15573;SDS011;7888;46.748;8.102;2023-02-24T09:15:13;3.10;;;1.60;;
15573;SDS011;7888;46.748;8.102;2023-02-24T09:17:41;3.67;;;1.70;;
15573;SDS011;7888;46.748;8.102;2023-02-24T09:22:57;3.50;;;1.90;;
15573;SDS011;7888;46.748;8.102;2023-02-24T09:25:39;7.03;;;2.20;;
15573;SDS011;7888;46.748;8.102;2023-02-24T09:28:06;3.70;;;2.13;;
15573;SDS011;7888;46.748;8.102;2023-02-24T09:30:52;4.43;;;1.83;;
15573;SDS011;7888;46.748;8.102;2023-02-24T09:33:28;3.57;;;1.80;;
15573;SDS011;7888;46.748;8.102;2023-02-24T09:36:16;4.07;;;1.60;;
15573;SDS011;7888;46.748;8.102;2023-02-24T09:39:06;4.03;;;1.90;;
15573;SDS011;7888;46.748;8.102;2023-02-24T09:41:45;4.30;;;2.30;;
15573;SDS011;7888;46.748;8.102;2023-02-24T09:47:14;6.03;;;2.47;;
15573;SDS011;7888;46.748;8.102;2023-02-24T09:52:44;4.00;;;2.03;;
15573;SDS011;7888;46.748;8.102;2023-02-24T09:58:18;8.80;;;1.77;;
15573;SDS011;7888;46.748;8.102;2023-02-24T10:03:56;5.67;;;2.20;;
15573;SDS011;7888;46.748;8.102;2023-02-24T10:06:39;2.50;;;1.90;;
15573;SDS011;7888;46.748;8.102;2023-02-24T10:09:26;5.37;;;2.33;;
15573;SDS011;7888;46.748;8.102;2023-02-24T10:12:06;3.93;;;1.90;;
15573;SDS011;7888;46.748;8.102;2023-02-24T10:17:51;2.37;;;1.40;;
15573;SDS011;7888;46.748;8.102;2023-02-24T10:20:25;5.00;;;1.90;;
15573;SDS011;7888;46.748;8.102;2023-02-24T10:25:48;6.00;;;2.40;;
15573;SDS011;7888;46.748;8.102;2023-02-24T10:34:58;3.70;;;1.80;;
15573;SDS011;7888;46.748;8.102;2023-02-24T10:37:26;3.53;;;1.33;;
15573;SDS011;7888;46.748;8.102;2023-02-24T10:40:00;2.73;;;1.50;;
15573;SDS011;7888;46.748;8.102;2023-02-24T10:42:33;3.93;;;1.50;;
15573;SDS011;7888;46.748;8.102;2023-02-24T10:47:53;7.60;;;1.77;;
15573;SDS011;7888;46.748;8.102;2023-02-24T10:50:22;5.67;;;2.00;;
15573;SDS011;7888;46.748;8.102;2023-02-24T10:53:05;4.13;;;1.80;;
15573;SDS011;7888;46.748;8.102;2023-02-24T10:55:58;6.00;;;2.00;;
15573;SDS011;7888;46.748;8.102;2023-02-24T10:58:58;2.90;;;1.60;;
15573;SDS011;7888;46.748;8.102;2023-02-24T11:02:01;5.63;;;2.50;;
15573;SDS011;7888;46.748;8.102;2023-02-24T11:05:12;3.50;;;1.83;;
15573;SDS011;7888;46.748;8.102;2023-02-24T11:08:10;5.17;;;1.57;;
15573;SDS011;7888;46.748;8.102;2023-02-24T11:11:01;5.33;;;2.03;;
15573;SDS011;7888;46.748;8.102;2023-02-24T11:13:54;5.70;;;2.10;;
15573;SDS011;7888;46.748;8.102;2023-02-24T11:16:46;3.10;;;1.60;;
15573;SDS011;7888;46.748;8.102;2023-02-24T11:19:48;4.80;;;2.00;;
15573;SDS011;7888;46.748;8.102;2023-02-24T11:22:23;3.53;;;1.87;;
15573;SDS011;7888;46.748;8.102;2023-02-24T11:25:04;7.37;;;2.60;;
15573;SDS011;7888;46.748;8.102;2023-02-24T11:27:45;4.70;;;1.80;;
15573;SDS011;7888;46.748;8.102;2023-02-24T11:30:59;3.43;;;1.33;;
15573;SDS011;7888;46.748;8.102;2023-02-24T11:33:21;4.50;;;1.87;;
15573;SDS011;7888;46.748;8.102;2023-02-24T11:36:10;8.83;;;1.97;;
15573;SDS011;7888;46.748;8.102;2023-02-24T11:41:58;5.47;;;1.70;;
15573;SDS011;7888;46.748;8.102;2023-02-24T11:44:39;5.97;;;2.17;;
15573;SDS011;7888;46.748;8.102;2023-02-24T11:47:43;3.73;;;1.87;;
15573;SDS011;7888;46.748;8.102;2023-02-24T11:50:29;3.83;;;1.67;;
15573;SDS011;7888;46.748;8.102;2023-02-24T11:53:18;3.73;;;1.90;;
15573;SDS011;7888;46.748;8.102;2023-02-24T11:59:29;2.83;;;1.47;;
15573;SDS011;7888;46.748;8.102;2023-02-24T12:02:14;3.07;;;1.60;;
15573;SDS011;7888;46.748;8.102;2023-02-24T12:05:10;4.27;;;1.57;;
15573;SDS011;7888;46.748;8.102;2023-02-24T12:07:51;5.20;;;2.03;;
15573;SDS011;7888;46.748;8.102;2023-02-24T12:10:24;2.10;;;1.37;;
15573;SDS011;7888;46.748;8.102;2023-02-24T12:15:54;4.63;;;1.90;;
15573;SDS011;7888;46.748;8.102;2023-02-24T12:18:36;4.87;;;2.00;;
15573;SDS011;7888;46.748;8.102;2023-02-24T12:21:14;4.67;;;1.70;;
15573;SDS011;7888;46.748;8.102;2023-02-24T12:23:54;4.70;;;1.40;;
15573;SDS011;7888;46.748;8.102;2023-02-24T12:37:56;3.30;;;1.65;;
15573;SDS011;7888;46.748;8.102;2023-02-24T12:40:54;4.18;;;1.45;;
15573;SDS011;7888;46.748;8.102;2023-02-24T12:43:44;3.60;;;1.92;;
15573;SDS011;7888;46.748;8.102;2023-02-24T12:46:50;4.17;;;1.43;;
15573;SDS011;7888;46.748;8.102;2023-02-24T12:52:35;2.93;;;1.40;;
15573;SDS011;7888;46.748;8.102;2023-02-24T12:56:12;3.85;;;1.70;;
15573;SDS011;7888;46.748;8.102;2023-02-24T12:58:38;4.97;;;2.10;;
15573;SDS011;7888;46.748;8.102;2023-02-24T13:12:28;4.53;;;2.00;;
15573;SDS011;7888;46.748;8.102;2023-02-24T13:15:18;4.47;;;1.70;;
15573;SDS011;7888;46.748;8.102;2023-02-24T13:17:49;5.10;;;2.00;;
15573;SDS011;7888;46.748;8.102;2023-02-24T13:22:58;3.73;;;1.70;;
15573;SDS011;7888;46.748;8.102;2023-02-24T13:25:32;5.47;;;1.87;;
15573;SDS011;7888;46.748;8.102;2023-02-24T13:28:35;4.72;;;1.63;;
15573;SDS011;7888;46.748;8.102;2023-02-24T13:33:33;7.73;;;2.00;;
15573;SDS011;7888;46.748;8.102;2023-02-24T13:36:10;4.90;;;1.80;;
15573;SDS011;7888;46.748;8.102;2023-02-24T13:39:05;4.37;;;1.67;;
15573;SDS011;7888;46.748;8.102;2023-02-24T13:42:00;5.13;;;1.80;;
15573;SDS011;7888;46.748;8.102;2023-02-24T13:44:31;9.33;;;2.17;;
15573;SDS011;7888;46.748;8.102;2023-02-24T13:58:39;4.72;;;1.60;;
15573;SDS011;7888;46.748;8.102;2023-02-24T14:01:50;3.47;;;1.87;;
15573;SDS011;7888;46.748;8.102;2023-02-24T14:04:35;5.50;;;2.20;;
15573;SDS011;7888;46.748;8.102;2023-02-24T14:07:11;3.50;;;1.90;;
15573;SDS011;7888;46.748;8.102;2023-02-24T14:10:32;6.77;;;2.80;;
15573;SDS011;7888;46.748;8.102;2023-02-24T14:13:14;5.33;;;2.37;;
15573;SDS011;7888;46.748;8.102;2023-02-24T14:15:46;8.00;;;2.93;;
15573;SDS011;7888;46.748;8.102;2023-02-24T14:18:22;5.93;;;1.80;;
15573;SDS011;7888;46.748;8.102;2023-02-24T14:20:54;5.37;;;1.60;;
15573;SDS011;7888;46.748;8.102;2023-02-24T14:23:23;5.20;;;1.97;;
15573;SDS011;7888;46.748;8.102;2023-02-24T14:25:58;6.13;;;2.33;;
15573;SDS011;7888;46.748;8.102;2023-02-24T14:28:38;5.80;;;1.93;;
15573;SDS011;7888;46.748;8.102;2023-02-24T14:33:35;5.60;;;1.70;;
15573;SDS011;7888;46.748;8.102;2023-02-24T14:36:03;4.90;;;1.77;;
15573;SDS011;7888;46.748;8.102;2023-02-24T14:38:39;6.53;;;2.00;;
15573;SDS011;7888;46.748;8.102;2023-02-24T14:41:20;6.38;;;2.45;;
15573;SDS011;7888;46.748;8.102;2023-02-24T14:43:54;5.72;;;2.17;;
15573;SDS011;7888;46.748;8.102;2023-02-24T14:46:20;5.35;;;1.90;;
15573;SDS011;7888;46.748;8.102;2023-02-24T14:48:50;4.33;;;1.80;;
15573;SDS011;7888;46.748;8.102;2023-02-24T14:51:27;3.95;;;1.63;;
15573;SDS011;7888;46.748;8.102;2023-02-24T14:54:00;5.22;;;2.15;;
15573;SDS011;7888;46.748;8.102;2023-02-24T14:56:39;4.97;;;1.90;;
15573;SDS011;7888;46.748;8.102;2023-02-24T14:59:15;2.75;;;1.77;;
15573;SDS011;7888;46.748;8.102;2023-02-24T15:02:00;3.27;;;1.40;;
15573;SDS011;7888;46.748;8.102;2023-02-24T15:04:38;5.32;;;2.13;;
15573;SDS011;7888;46.748;8.102;2023-02-24T15:07:18;3.22;;;1.77;;
15573;SDS011;7888;46.748;8.102;2023-02-24T15:09:50;4.35;;;1.65;;
15573;SDS011;7888;46.748;8.102;2023-02-24T15:12:27;6.00;;;1.90;;
15573;SDS011;7888;46.748;8.102;2023-02-24T15:17:37;3.80;;;1.63;;
15573;SDS011;7888;46.748;8.102;2023-02-24T15:20:26;3.07;;;1.40;;
15573;SDS011;7888;46.748;8.102;2023-02-24T15:22:59;4.47;;;1.70;;
15573;SDS011;7888;46.748;8.102;2023-02-24T15:25:44;5.07;;;2.10;;
15573;SDS011;7888;46.748;8.102;2023-02-24T15:28:25;4.27;;;2.00;;
15573;SDS011;7888;46.748;8.102;2023-02-24T15:31:00;5.70;;;2.07;;
15573;SDS011;7888;46.748;8.102;2023-02-24T15:33:41;3.70;;;2.17;;
15573;SDS011;7888;46.748;8.102;2023-02-24T15:36:23;3.17;;;1.53;;
15573;SDS011;7888;46.748;8.102;2023-02-24T15:38:54;6.20;;;1.77;;
15573;SDS011;7888;46.748;8.102;2023-02-24T15:41:44;4.50;;;1.83;;
15573;SDS011;7888;46.748;8.102;2023-02-24T15:44:28;3.40;;;1.57;;
15573;SDS011;7888;46.748;8.102;2023-02-24T15:46:57;6.57;;;2.00;;
15573;SDS011;7888;46.748;8.102;2023-02-24T15:49:35;4.57;;;1.57;;
15573;SDS011;7888;46.748;8.102;2023-02-24T15:52:01;9.97;;;1.50;;
15573;SDS011;7888;46.748;8.102;2023-02-24T15:54:30;3.27;;;1.47;;
15573;SDS011;7888;46.748;8.102;2023-02-24T15:57:00;4.93;;;1.53;;
15573;SDS011;7888;46.748;8.102;2023-02-24T15:59:29;4.97;;;1.73;;
15573;SDS011;7888;46.748;8.102;2023-02-24T16:01:55;5.87;;;2.17;;
15573;SDS011;7888;46.748;8.102;2023-02-24T16:04:21;2.60;;;1.70;;
15573;SDS011;7888;46.748;8.102;2023-02-24T16:06:49;4.73;;;2.23;;
15573;SDS011;7888;46.748;8.102;2023-02-24T16:09:24;3.93;;;1.80;;
15573;SDS011;7888;46.748;8.102;2023-02-24T16:12:02;6.87;;;2.33;;
15573;SDS011;7888;46.748;8.102;2023-02-24T16:14:39;10.30;;;2.40;;
15573;SDS011;7888;46.748;8.102;2023-02-24T16:17:08;4.80;;;1.70;;
15573;SDS011;7888;46.748;8.102;2023-02-24T16:20:03;4.33;;;1.90;;
15573;SDS011;7888;46.748;8.102;2023-02-24T16:22:55;5.00;;;1.97;;
15573;SDS011;7888;46.748;8.102;2023-02-24T16:25:24;3.90;;;1.80;;
15573;SDS011;7888;46.748;8.102;2023-02-24T16:27:51;4.63;;;2.10;;
15573;SDS011;7888;46.748;8.102;2023-02-24T16:30:21;5.63;;;1.90;;
15573;SDS011;7888;46.748;8.102;2023-02-24T16:32:54;5.40;;;2.10;;
15573;SDS011;7888;46.748;8.102;2023-02-24T16:35:22;3.90;;;1.70;;
15573;SDS011;7888;46.748;8.102;2023-02-24T16:37:50;4.10;;;1.63;;
15573;SDS011;7888;46.748;8.102;2023-02-24T16:40:21;4.53;;;1.83;;
15573;SDS011;7888;46.748;8.102;2023-02-24T16:42:54;5.73;;;1.70;;
15573;SDS011;7888;46.748;8.102;2023-02-24T16:45:21;4.03;;;2.03;;
15573;SDS011;7888;46.748;8.102;2023-02-24T16:47:51;5.50;;;2.83;;
15573;SDS011;7888;46.748;8.102;2023-02-24T16:50:23;6.47;;;3.20;;
15573;SDS011;7888;46.748;8.102;2023-02-24T16:52:57;6.43;;;2.63;;
15573;SDS011;7888;46.748;8.102;2023-02-24T16:55:24;6.00;;;2.20;;
15573;SDS011;7888;46.748;8.102;2023-02-24T16:57:51;6.47;;;1.90;;
15573;SDS011;7888;46.748;8.102;2023-02-24T17:00:17;6.20;;;2.10;;
15573;SDS011;7888;46.748;8.102;2023-02-24T17:02:47;4.23;;;2.20;;
15573;SDS011;7888;46.748;8.102;2023-02-24T17:05:16;5.57;;;1.90;;
15573;SDS011;7888;46.748;8.102;2023-02-24T17:07:48;4.40;;;1.97;;
15573;SDS011;7888;46.748;8.102;2023-02-24T17:10:17;6.00;;;1.90;;
15573;SDS011;7888;46.748;8.102;2023-02-24T17:12:45;4.33;;;2.17;;
15573;SDS011;7888;46.748;8.102;2023-02-24T17:15:13;7.17;;;2.00;;
15573;SDS011;7888;46.748;8.102;2023-02-24T17:17:44;5.47;;;2.20;;
15573;SDS011;7888;46.748;8.102;2023-02-24T17:20:11;5.10;;;2.03;;
15573;SDS011;7888;46.748;8.102;2023-02-24T17:22:40;4.23;;;2.00;;
15573;SDS011;7888;46.748;8.102;2023-02-24T17:25:11;5.73;;;2.50;;
15573;SDS011;7888;46.748;8.102;2023-02-24T17:27:46;5.20;;;2.17;;
15573;SDS011;7888;46.748;8.102;2023-02-24T17:30:12;6.23;;;2.00;;
15573;SDS011;7888;46.748;8.102;2023-02-24T17:32:46;6.37;;;2.40;;
15573;SDS011;7888;46.748;8.102;2023-02-24T17:35:12;3.50;;;2.10;;
15573;SDS011;7888;46.748;8.102;2023-02-24T17:37:38;6.90;;;2.87;;
15573;SDS011;7888;46.748;8.102;2023-02-24T17:40:04;5.13;;;2.73;;
15573;SDS011;7888;46.748;8.102;2023-02-24T17:42:31;5.83;;;2.53;;
15573;SDS011;7888;46.748;8.102;2023-02-24T17:44:57;7.90;;;2.93;;
15573;SDS011;7888;46.748;8.102;2023-02-24T17:47:23;12.27;;;4.80;;
15573;SDS011;7888;46.748;8.102;2023-02-24T17:49:50;15.80;;;6.17;;
15573;SDS011;7888;46.748;8.102;2023-02-24T17:52:15;8.00;;;4.60;;
15573;SDS011;7888;46.748;8.102;2023-02-24T17:54:41;8.47;;;3.80;;
15573;SDS011;7888;46.748;8.102;2023-02-24T17:57:07;6.87;;;3.43;;
15573;SDS011;7888;46.748;8.102;2023-02-24T17:59:36;5.77;;;2.50;;
15573;SDS011;7888;46.748;8.102;2023-02-24T18:02:02;4.53;;;2.20;;
15573;SDS011;7888;46.748;8.102;2023-02-24T18:04:29;5.30;;;2.20;;